sensor_id;sensor_type;location;lat;lon;timestamp;temperature;humidity
20376;DHT22;10347;51.828;6.466;2022-07-29T00:00:35;21.20;94.20
20376;DHT22;10347;51.828;6.466;2022-07-29T00:03:02;21.20;94.20
20376;DHT22;10347;51.828;6.466;2022-07-29T00:05:28;21.20;94.20
20376;DHT22;10347;51.828;6.466;2022-07-29T00:07:53;21.20;94.30
20376;DHT22;10347;51.828;6.466;2022-07-29T00:10:20;21.10;94.30
20376;DHT22;10347;51.828;6.466;2022-07-29T00:12:45;21.20;94.40
20376;DHT22;10347;51.828;6.466;2022-07-29T00:15:11;21.10;94.40
20376;DHT22;10347;51.828;6.466;2022-07-29T00:17:37;21.10;94.50
20376;DHT22;10347;51.828;6.466;2022-07-29T00:20:03;21.10;94.50
20376;DHT22;10347;51.828;6.466;2022-07-29T00:22:29;21.10;94.60
20376;DHT22;10347;51.828;6.466;2022-07-29T00:24:55;21.10;95.00
20376;DHT22;10347;51.828;6.466;2022-07-29T00:27:20;21.00;94.70
20376;DHT22;10347;51.828;6.466;2022-07-29T00:29:47;21.00;94.70
20376;DHT22;10347;51.828;6.466;2022-07-29T00:32:12;21.00;94.80
20376;DHT22;10347;51.828;6.466;2022-07-29T00:34:38;21.00;94.90
20376;DHT22;10347;51.828;6.466;2022-07-29T00:37:22;20.90;94.80
20376;DHT22;10347;51.828;6.466;2022-07-29T00:39:48;20.90;94.90
20376;DHT22;10347;51.828;6.466;2022-07-29T00:42:13;20.90;95.00
20376;DHT22;10347;51.828;6.466;2022-07-29T00:44:40;20.90;95.00
20376;DHT22;10347;51.828;6.466;2022-07-29T00:47:06;20.90;95.10
20376;DHT22;10347;51.828;6.466;2022-07-29T00:49:33;20.80;95.50
20376;DHT22;10347;51.828;6.466;2022-07-29T00:52:03;20.80;95.20
20376;DHT22;10347;51.828;6.466;2022-07-29T00:54:29;20.80;95.30
20376;DHT22;10347;51.828;6.466;2022-07-29T00:56:58;20.80;95.40
20376;DHT22;10347;51.828;6.466;2022-07-29T00:59:23;20.80;95.40
20376;DHT22;10347;51.828;6.466;2022-07-29T01:01:49;20.70;95.50
20376;DHT22;10347;51.828;6.466;2022-07-29T01:04:15;20.70;95.70
20376;DHT22;10347;51.828;6.466;2022-07-29T01:06:41;20.60;95.80
20376;DHT22;10347;51.828;6.466;2022-07-29T01:09:07;20.60;96.00
20376;DHT22;10347;51.828;6.466;2022-07-29T01:11:34;20.60;96.10
20376;DHT22;10347;51.828;6.466;2022-07-29T01:14:01;20.50;96.20
20376;DHT22;10347;51.828;6.466;2022-07-29T01:16:39;20.50;96.30
20376;DHT22;10347;51.828;6.466;2022-07-29T01:21:57;20.40;96.60
20376;DHT22;10347;51.828;6.466;2022-07-29T01:24:48;20.40;96.70
20376;DHT22;10347;51.828;6.466;2022-07-29T01:27:41;20.40;97.00
20376;DHT22;10347;51.828;6.466;2022-07-29T01:30:10;20.30;97.10
20376;DHT22;10347;51.828;6.466;2022-07-29T01:32:38;20.30;97.00
20376;DHT22;10347;51.828;6.466;2022-07-29T01:35:26;20.30;97.20
20376;DHT22;10347;51.828;6.466;2022-07-29T01:38:09;20.20;97.50
20376;DHT22;10347;51.828;6.466;2022-07-29T01:40:58;20.20;97.50
20376;DHT22;10347;51.828;6.466;2022-07-29T01:43:33;20.20;97.90
20376;DHT22;10347;51.828;6.466;2022-07-29T01:46:04;20.20;97.70
20376;DHT22;10347;51.828;6.466;2022-07-29T01:48:39;20.10;97.70
20376;DHT22;10347;51.828;6.466;2022-07-29T01:51:30;20.10;97.80
20376;DHT22;10347;51.828;6.466;2022-07-29T01:56:51;20.10;98.00
20376;DHT22;10347;51.828;6.466;2022-07-29T01:59:19;20.10;98.00
20376;DHT22;10347;51.828;6.466;2022-07-29T02:01:47;20.10;98.00
20376;DHT22;10347;51.828;6.466;2022-07-29T02:04:15;20.10;98.10
20376;DHT22;10347;51.828;6.466;2022-07-29T02:06:42;20.00;98.30
20376;DHT22;10347;51.828;6.466;2022-07-29T02:09:10;20.00;98.30
20376;DHT22;10347;51.828;6.466;2022-07-29T02:11:38;19.90;98.40
20376;DHT22;10347;51.828;6.466;2022-07-29T02:14:04;20.00;98.50
20376;DHT22;10347;51.828;6.466;2022-07-29T02:16:32;19.90;98.50
20376;DHT22;10347;51.828;6.466;2022-07-29T02:19:01;19.90;98.60
20376;DHT22;10347;51.828;6.466;2022-07-29T02:21:27;20.00;98.60
20376;DHT22;10347;51.828;6.466;2022-07-29T02:23:56;20.00;98.60
20376;DHT22;10347;51.828;6.466;2022-07-29T02:26:25;20.00;98.80
20376;DHT22;10347;51.828;6.466;2022-07-29T02:28:55;19.90;98.90
20376;DHT22;10347;51.828;6.466;2022-07-29T02:31:24;19.90;98.90
20376;DHT22;10347;51.828;6.466;2022-07-29T02:33:50;19.90;99.20
20376;DHT22;10347;51.828;6.466;2022-07-29T02:36:17;19.80;99.50
20376;DHT22;10347;51.828;6.466;2022-07-29T02:38:46;19.70;99.80
20376;DHT22;10347;51.828;6.466;2022-07-29T02:41:19;19.70;99.90
20376;DHT22;10347;51.828;6.466;2022-07-29T02:43:48;19.60;99.90
20376;DHT22;10347;51.828;6.466;2022-07-29T02:46:18;19.60;99.90
20376;DHT22;10347;51.828;6.466;2022-07-29T02:48:54;19.50;99.90
20376;DHT22;10347;51.828;6.466;2022-07-29T02:51:28;19.50;99.90
20376;DHT22;10347;51.828;6.466;2022-07-29T02:54:01;19.40;99.90
20376;DHT22;10347;51.828;6.466;2022-07-29T02:56:31;19.40;99.90
20376;DHT22;10347;51.828;6.466;2022-07-29T02:59:04;19.40;99.90
20376;DHT22;10347;51.828;6.466;2022-07-29T03:01:32;19.40;99.90
20376;DHT22;10347;51.828;6.466;2022-07-29T03:04:02;19.40;99.90
20376;DHT22;10347;51.828;6.466;2022-07-29T03:06:28;19.30;99.90
20376;DHT22;10347;51.828;6.466;2022-07-29T03:08:56;19.30;99.90
20376;DHT22;10347;51.828;6.466;2022-07-29T03:11:23;19.30;99.90
20376;DHT22;10347;51.828;6.466;2022-07-29T03:13:48;19.30;99.90
20376;DHT22;10347;51.828;6.466;2022-07-29T03:16:15;19.30;99.90
20376;DHT22;10347;51.828;6.466;2022-07-29T03:18:41;19.30;99.90
20376;DHT22;10347;51.828;6.466;2022-07-29T03:21:08;19.30;99.90
20376;DHT22;10347;51.828;6.466;2022-07-29T03:23:33;19.40;99.90
20376;DHT22;10347;51.828;6.466;2022-07-29T03:25:59;19.40;99.90
20376;DHT22;10347;51.828;6.466;2022-07-29T03:28:24;19.40;99.90
20376;DHT22;10347;51.828;6.466;2022-07-29T03:30:52;19.40;99.90
20376;DHT22;10347;51.828;6.466;2022-07-29T03:33:18;19.30;99.90
20376;DHT22;10347;51.828;6.466;2022-07-29T03:35:44;19.30;99.90
20376;DHT22;10347;51.828;6.466;2022-07-29T03:38:09;19.20;99.90
20376;DHT22;10347;51.828;6.466;2022-07-29T03:40:46;19.10;99.90
20376;DHT22;10347;51.828;6.466;2022-07-29T03:43:15;19.10;99.90
20376;DHT22;10347;51.828;6.466;2022-07-29T03:45:45;19.10;99.90
20376;DHT22;10347;51.828;6.466;2022-07-29T03:48:15;19.10;99.90
20376;DHT22;10347;51.828;6.466;2022-07-29T03:50:41;19.00;99.90
20376;DHT22;10347;51.828;6.466;2022-07-29T03:53:07;19.00;99.90
20376;DHT22;10347;51.828;6.466;2022-07-29T03:55:37;19.00;99.90
20376;DHT22;10347;51.828;6.466;2022-07-29T03:58:05;18.90;99.90
20376;DHT22;10347;51.828;6.466;2022-07-29T04:00:34;19.00;99.90
20376;DHT22;10347;51.828;6.466;2022-07-29T04:03:00;18.90;99.90
20376;DHT22;10347;51.828;6.466;2022-07-29T04:05:26;18.80;99.90
20376;DHT22;10347;51.828;6.466;2022-07-29T04:07:51;18.70;99.90
20376;DHT22;10347;51.828;6.466;2022-07-29T04:10:17;18.60;99.90
20376;DHT22;10347;51.828;6.466;2022-07-29T04:12:44;18.60;99.90
20376;DHT22;10347;51.828;6.466;2022-07-29T04:15:10;18.50;99.90
20376;DHT22;10347;51.828;6.466;2022-07-29T04:17:36;18.50;99.90
20376;DHT22;10347;51.828;6.466;2022-07-29T04:20:02;18.40;99.90
20376;DHT22;10347;51.828;6.466;2022-07-29T04:22:28;18.40;99.90
20376;DHT22;10347;51.828;6.466;2022-07-29T04:24:53;18.40;99.90
20376;DHT22;10347;51.828;6.466;2022-07-29T04:27:19;18.30;99.90
20376;DHT22;10347;51.828;6.466;2022-07-29T04:29:45;18.20;99.90
20376;DHT22;10347;51.828;6.466;2022-07-29T04:32:10;18.20;99.90
20376;DHT22;10347;51.828;6.466;2022-07-29T04:34:36;18.20;99.90
20376;DHT22;10347;51.828;6.466;2022-07-29T04:37:01;18.20;99.90
20376;DHT22;10347;51.828;6.466;2022-07-29T04:39:27;18.20;99.90
20376;DHT22;10347;51.828;6.466;2022-07-29T04:41:53;18.20;99.90
20376;DHT22;10347;51.828;6.466;2022-07-29T04:44:18;18.20;99.90
20376;DHT22;10347;51.828;6.466;2022-07-29T04:46:44;18.20;99.90
20376;DHT22;10347;51.828;6.466;2022-07-29T04:49:10;18.20;99.90
20376;DHT22;10347;51.828;6.466;2022-07-29T04:51:35;18.30;99.90
20376;DHT22;10347;51.828;6.466;2022-07-29T04:54:01;18.20;99.90
20376;DHT22;10347;51.828;6.466;2022-07-29T04:56:27;18.20;99.90
20376;DHT22;10347;51.828;6.466;2022-07-29T04:58:52;18.10;99.90
20376;DHT22;10347;51.828;6.466;2022-07-29T05:01:18;18.20;99.90
20376;DHT22;10347;51.828;6.466;2022-07-29T05:03:45;18.30;99.90
20376;DHT22;10347;51.828;6.466;2022-07-29T05:06:11;18.30;99.90
20376;DHT22;10347;51.828;6.466;2022-07-29T05:08:37;18.30;99.90
20376;DHT22;10347;51.828;6.466;2022-07-29T05:11:02;18.30;99.90
20376;DHT22;10347;51.828;6.466;2022-07-29T05:13:29;18.30;99.90
20376;DHT22;10347;51.828;6.466;2022-07-29T05:15:55;18.30;99.90
20376;DHT22;10347;51.828;6.466;2022-07-29T05:18:21;18.30;99.90
20376;DHT22;10347;51.828;6.466;2022-07-29T05:20:46;18.20;99.90
20376;DHT22;10347;51.828;6.466;2022-07-29T05:23:12;18.20;99.90
20376;DHT22;10347;51.828;6.466;2022-07-29T05:25:38;18.10;99.90
20376;DHT22;10347;51.828;6.466;2022-07-29T05:28:04;18.20;99.90
20376;DHT22;10347;51.828;6.466;2022-07-29T05:30:29;18.20;99.90
20376;DHT22;10347;51.828;6.466;2022-07-29T05:32:55;18.10;99.90
20376;DHT22;10347;51.828;6.466;2022-07-29T05:35:21;18.10;99.90
20376;DHT22;10347;51.828;6.466;2022-07-29T05:37:46;18.10;99.90
20376;DHT22;10347;51.828;6.466;2022-07-29T05:40:12;18.00;99.90
20376;DHT22;10347;51.828;6.466;2022-07-29T05:42:37;18.00;99.90
20376;DHT22;10347;51.828;6.466;2022-07-29T05:45:03;18.00;99.90
20376;DHT22;10347;51.828;6.466;2022-07-29T05:47:30;18.00;99.90
20376;DHT22;10347;51.828;6.466;2022-07-29T05:49:55;18.00;99.90
20376;DHT22;10347;51.828;6.466;2022-07-29T05:52:21;17.90;99.90
20376;DHT22;10347;51.828;6.466;2022-07-29T05:54:47;17.90;99.90
20376;DHT22;10347;51.828;6.466;2022-07-29T05:57:20;17.90;99.90
20376;DHT22;10347;51.828;6.466;2022-07-29T05:59:46;17.70;99.90
20376;DHT22;10347;51.828;6.466;2022-07-29T06:02:12;17.60;99.90
20376;DHT22;10347;51.828;6.466;2022-07-29T06:04:38;17.50;99.90
20376;DHT22;10347;51.828;6.466;2022-07-29T06:07:03;17.40;99.90
20376;DHT22;10347;51.828;6.466;2022-07-29T06:09:29;17.40;99.90
20376;DHT22;10347;51.828;6.466;2022-07-29T06:11:55;17.40;99.90
20376;DHT22;10347;51.828;6.466;2022-07-29T06:14:21;17.40;99.90
20376;DHT22;10347;51.828;6.466;2022-07-29T06:16:46;17.50;99.90
20376;DHT22;10347;51.828;6.466;2022-07-29T06:19:12;17.50;99.90
20376;DHT22;10347;51.828;6.466;2022-07-29T06:21:47;17.60;99.90
20376;DHT22;10347;51.828;6.466;2022-07-29T06:24:14;17.60;99.90
20376;DHT22;10347;51.828;6.466;2022-07-29T06:26:40;17.70;99.90
20376;DHT22;10347;51.828;6.466;2022-07-29T06:29:06;17.60;99.90
20376;DHT22;10347;51.828;6.466;2022-07-29T06:31:32;17.70;99.90
20376;DHT22;10347;51.828;6.466;2022-07-29T06:33:58;17.70;99.90
20376;DHT22;10347;51.828;6.466;2022-07-29T06:36:23;17.70;99.90
20376;DHT22;10347;51.828;6.466;2022-07-29T06:38:49;17.70;99.90
20376;DHT22;10347;51.828;6.466;2022-07-29T06:41:14;17.70;99.90
20376;DHT22;10347;51.828;6.466;2022-07-29T06:43:43;17.70;99.90
20376;DHT22;10347;51.828;6.466;2022-07-29T06:46:11;17.70;99.90
20376;DHT22;10347;51.828;6.466;2022-07-29T06:48:38;17.70;99.90
20376;DHT22;10347;51.828;6.466;2022-07-29T06:51:04;17.70;99.90
20376;DHT22;10347;51.828;6.466;2022-07-29T06:53:31;17.80;99.90
20376;DHT22;10347;51.828;6.466;2022-07-29T06:55:57;17.80;99.90
20376;DHT22;10347;51.828;6.466;2022-07-29T06:58:25;17.80;99.90
20376;DHT22;10347;51.828;6.466;2022-07-29T07:00:51;17.80;99.90
20376;DHT22;10347;51.828;6.466;2022-07-29T07:03:17;17.80;99.90
20376;DHT22;10347;51.828;6.466;2022-07-29T07:05:44;17.80;99.90
20376;DHT22;10347;51.828;6.466;2022-07-29T07:08:10;17.70;99.90
20376;DHT22;10347;51.828;6.466;2022-07-29T07:10:36;17.70;99.90
20376;DHT22;10347;51.828;6.466;2022-07-29T07:13:02;17.70;99.90
20376;DHT22;10347;51.828;6.466;2022-07-29T07:15:28;17.70;99.90
20376;DHT22;10347;51.828;6.466;2022-07-29T07:17:54;17.60;99.90
20376;DHT22;10347;51.828;6.466;2022-07-29T07:20:20;17.60;99.90
20376;DHT22;10347;51.828;6.466;2022-07-29T07:22:45;17.60;99.90
20376;DHT22;10347;51.828;6.466;2022-07-29T07:25:11;17.60;99.90
20376;DHT22;10347;51.828;6.466;2022-07-29T07:27:37;17.70;99.90
20376;DHT22;10347;51.828;6.466;2022-07-29T07:30:04;17.70;99.90
20376;DHT22;10347;51.828;6.466;2022-07-29T07:32:34;17.70;99.90
20376;DHT22;10347;51.828;6.466;2022-07-29T07:35:00;17.70;99.90
20376;DHT22;10347;51.828;6.466;2022-07-29T07:37:26;17.60;99.90
20376;DHT22;10347;51.828;6.466;2022-07-29T07:39:52;17.60;99.90
20376;DHT22;10347;51.828;6.466;2022-07-29T07:42:18;17.60;99.90
20376;DHT22;10347;51.828;6.466;2022-07-29T07:44:44;17.60;99.90
20376;DHT22;10347;51.828;6.466;2022-07-29T07:47:11;17.60;99.90
20376;DHT22;10347;51.828;6.466;2022-07-29T07:49:37;17.60;99.90
20376;DHT22;10347;51.828;6.466;2022-07-29T07:52:03;17.60;99.90
20376;DHT22;10347;51.828;6.466;2022-07-29T07:54:28;17.60;99.90
20376;DHT22;10347;51.828;6.466;2022-07-29T07:56:54;17.60;99.90
20376;DHT22;10347;51.828;6.466;2022-07-29T07:59:20;17.70;99.90
20376;DHT22;10347;51.828;6.466;2022-07-29T08:01:45;17.70;99.90
20376;DHT22;10347;51.828;6.466;2022-07-29T08:04:11;17.70;99.90
20376;DHT22;10347;51.828;6.466;2022-07-29T08:06:37;17.70;99.90
20376;DHT22;10347;51.828;6.466;2022-07-29T08:09:03;17.70;99.90
20376;DHT22;10347;51.828;6.466;2022-07-29T08:11:29;17.70;99.90
20376;DHT22;10347;51.828;6.466;2022-07-29T08:13:55;17.80;99.90
20376;DHT22;10347;51.828;6.466;2022-07-29T08:16:21;17.80;99.90
20376;DHT22;10347;51.828;6.466;2022-07-29T08:18:47;17.70;99.90
20376;DHT22;10347;51.828;6.466;2022-07-29T08:21:14;17.70;99.90
20376;DHT22;10347;51.828;6.466;2022-07-29T08:23:41;17.80;99.90
20376;DHT22;10347;51.828;6.466;2022-07-29T08:26:12;17.80;99.90
20376;DHT22;10347;51.828;6.466;2022-07-29T08:28:39;17.90;99.90
20376;DHT22;10347;51.828;6.466;2022-07-29T08:31:05;17.90;99.90
20376;DHT22;10347;51.828;6.466;2022-07-29T08:33:32;17.80;99.90
20376;DHT22;10347;51.828;6.466;2022-07-29T08:35:58;17.80;99.90
20376;DHT22;10347;51.828;6.466;2022-07-29T08:38:23;17.80;99.90
20376;DHT22;10347;51.828;6.466;2022-07-29T08:40:51;17.80;99.90
20376;DHT22;10347;51.828;6.466;2022-07-29T08:43:18;17.80;99.90
20376;DHT22;10347;51.828;6.466;2022-07-29T08:45:49;17.80;99.90
20376;DHT22;10347;51.828;6.466;2022-07-29T08:48:18;17.80;99.90
20376;DHT22;10347;51.828;6.466;2022-07-29T08:50:44;17.80;99.90
20376;DHT22;10347;51.828;6.466;2022-07-29T08:53:12;17.80;99.90
20376;DHT22;10347;51.828;6.466;2022-07-29T08:55:41;17.80;99.90
20376;DHT22;10347;51.828;6.466;2022-07-29T08:58:08;17.70;99.90
20376;DHT22;10347;51.828;6.466;2022-07-29T09:00:36;17.70;99.90
20376;DHT22;10347;51.828;6.466;2022-07-29T09:03:02;17.70;99.90
20376;DHT22;10347;51.828;6.466;2022-07-29T09:05:29;17.70;99.90
20376;DHT22;10347;51.828;6.466;2022-07-29T09:07:55;17.70;99.90
20376;DHT22;10347;51.828;6.466;2022-07-29T09:10:21;17.70;99.90
20376;DHT22;10347;51.828;6.466;2022-07-29T09:12:47;17.70;99.90
20376;DHT22;10347;51.828;6.466;2022-07-29T09:15:14;17.70;99.90
20376;DHT22;10347;51.828;6.466;2022-07-29T09:17:44;17.70;99.90
20376;DHT22;10347;51.828;6.466;2022-07-29T09:20:17;17.70;99.90
20376;DHT22;10347;51.828;6.466;2022-07-29T09:22:43;17.70;99.90
20376;DHT22;10347;51.828;6.466;2022-07-29T09:25:12;17.60;99.90
20376;DHT22;10347;51.828;6.466;2022-07-29T09:27:38;17.70;99.90
20376;DHT22;10347;51.828;6.466;2022-07-29T09:30:06;17.70;99.90
20376;DHT22;10347;51.828;6.466;2022-07-29T09:32:58;17.70;99.90
20376;DHT22;10347;51.828;6.466;2022-07-29T09:35:27;17.70;99.90
20376;DHT22;10347;51.828;6.466;2022-07-29T09:37:53;17.70;99.90
20376;DHT22;10347;51.828;6.466;2022-07-29T09:40:27;17.70;99.90
20376;DHT22;10347;51.828;6.466;2022-07-29T09:42:54;17.70;99.90
20376;DHT22;10347;51.828;6.466;2022-07-29T09:45:33;17.70;99.90
20376;DHT22;10347;51.828;6.466;2022-07-29T09:47:59;17.80;99.90
20376;DHT22;10347;51.828;6.466;2022-07-29T09:50:39;17.80;99.90
20376;DHT22;10347;51.828;6.466;2022-07-29T09:53:05;17.80;99.90
20376;DHT22;10347;51.828;6.466;2022-07-29T09:55:31;17.80;99.90
20376;DHT22;10347;51.828;6.466;2022-07-29T09:58:20;17.90;99.90
20376;DHT22;10347;51.828;6.466;2022-07-29T10:00:47;17.90;99.90
20376;DHT22;10347;51.828;6.466;2022-07-29T10:03:14;17.90;99.90
20376;DHT22;10347;51.828;6.466;2022-07-29T10:05:41;17.90;99.90
20376;DHT22;10347;51.828;6.466;2022-07-29T10:08:07;18.00;99.90
20376;DHT22;10347;51.828;6.466;2022-07-29T10:10:36;17.90;99.90
20376;DHT22;10347;51.828;6.466;2022-07-29T10:13:07;17.90;99.90
20376;DHT22;10347;51.828;6.466;2022-07-29T10:15:37;17.90;99.90
20376;DHT22;10347;51.828;6.466;2022-07-29T10:18:05;17.90;99.90
20376;DHT22;10347;51.828;6.466;2022-07-29T10:20:31;18.00;99.90
20376;DHT22;10347;51.828;6.466;2022-07-29T10:22:56;18.00;99.90
20376;DHT22;10347;51.828;6.466;2022-07-29T10:25:23;18.10;99.90
20376;DHT22;10347;51.828;6.466;2022-07-29T10:27:50;18.10;99.90
20376;DHT22;10347;51.828;6.466;2022-07-29T10:30:21;18.10;99.90
20376;DHT22;10347;51.828;6.466;2022-07-29T10:38:31;18.20;99.90
20376;DHT22;10347;51.828;6.466;2022-07-29T10:43:45;18.20;99.90
20376;DHT22;10347;51.828;6.466;2022-07-29T10:46:12;18.30;99.90
20376;DHT22;10347;51.828;6.466;2022-07-29T10:49:17;18.30;99.90
20376;DHT22;10347;51.828;6.466;2022-07-29T10:57:22;18.50;99.90
20376;DHT22;10347;51.828;6.466;2022-07-29T11:05:12;18.80;99.90
20376;DHT22;10347;51.828;6.466;2022-07-29T11:07:40;18.80;99.90
20376;DHT22;10347;51.828;6.466;2022-07-29T11:10:24;18.90;99.90
20376;DHT22;10347;51.828;6.466;2022-07-29T11:12:50;19.00;99.90
20376;DHT22;10347;51.828;6.466;2022-07-29T11:15:21;19.00;99.90
20376;DHT22;10347;51.828;6.466;2022-07-29T11:20:42;19.10;99.90
20376;DHT22;10347;51.828;6.466;2022-07-29T11:29:02;19.30;99.90
20376;DHT22;10347;51.828;6.466;2022-07-29T11:31:38;19.50;99.90
20376;DHT22;10347;51.828;6.466;2022-07-29T11:39:33;19.60;99.90
20376;DHT22;10347;51.828;6.466;2022-07-29T11:44:59;19.80;99.90
20376;DHT22;10347;51.828;6.466;2022-07-29T11:47:26;19.80;99.90
20376;DHT22;10347;51.828;6.466;2022-07-29T11:49:54;19.90;99.90
20376;DHT22;10347;51.828;6.466;2022-07-29T11:52:20;19.90;99.90
20376;DHT22;10347;51.828;6.466;2022-07-29T11:54:50;20.00;99.90
20376;DHT22;10347;51.828;6.466;2022-07-29T11:57:17;20.00;99.90
20376;DHT22;10347;51.828;6.466;2022-07-29T11:59:45;20.10;99.90
20376;DHT22;10347;51.828;6.466;2022-07-29T12:02:12;20.20;99.90
20376;DHT22;10347;51.828;6.466;2022-07-29T12:04:52;20.20;99.90
20376;DHT22;10347;51.828;6.466;2022-07-29T12:09:53;20.30;99.90
20376;DHT22;10347;51.828;6.466;2022-07-29T12:12:20;20.30;99.90
20376;DHT22;10347;51.828;6.466;2022-07-29T12:14:46;20.40;99.90
20376;DHT22;10347;51.828;6.466;2022-07-29T12:17:31;20.50;99.90
20376;DHT22;10347;51.828;6.466;2022-07-29T12:20:00;20.60;99.90
20376;DHT22;10347;51.828;6.466;2022-07-29T12:22:29;20.60;99.90
20376;DHT22;10347;51.828;6.466;2022-07-29T12:24:55;20.70;99.90
20376;DHT22;10347;51.828;6.466;2022-07-29T12:27:22;20.70;99.90
20376;DHT22;10347;51.828;6.466;2022-07-29T12:30:01;20.70;99.90
20376;DHT22;10347;51.828;6.466;2022-07-29T12:32:43;20.80;99.90
20376;DHT22;10347;51.828;6.466;2022-07-29T12:35:18;20.80;99.90
20376;DHT22;10347;51.828;6.466;2022-07-29T12:37:46;20.90;99.90
20376;DHT22;10347;51.828;6.466;2022-07-29T12:40:17;21.00;99.90
20376;DHT22;10347;51.828;6.466;2022-07-29T12:43:12;21.10;99.90
20376;DHT22;10347;51.828;6.466;2022-07-29T12:45:40;21.20;99.90
20376;DHT22;10347;51.828;6.466;2022-07-29T12:48:08;21.30;99.90
20376;DHT22;10347;51.828;6.466;2022-07-29T12:50:36;21.30;99.90
20376;DHT22;10347;51.828;6.466;2022-07-29T12:53:09;21.40;99.90
20376;DHT22;10347;51.828;6.466;2022-07-29T12:55:47;21.50;99.90
20376;DHT22;10347;51.828;6.466;2022-07-29T12:58:25;21.60;99.90
20376;DHT22;10347;51.828;6.466;2022-07-29T13:01:00;21.60;99.90
20376;DHT22;10347;51.828;6.466;2022-07-29T13:03:25;21.80;99.90
20376;DHT22;10347;51.828;6.466;2022-07-29T13:05:51;21.90;99.90
20376;DHT22;10347;51.828;6.466;2022-07-29T13:08:17;21.90;99.90
20376;DHT22;10347;51.828;6.466;2022-07-29T13:10:46;22.10;99.90
20376;DHT22;10347;51.828;6.466;2022-07-29T13:13:15;22.10;99.90
20376;DHT22;10347;51.828;6.466;2022-07-29T13:15:43;22.20;99.90
20376;DHT22;10347;51.828;6.466;2022-07-29T13:20:53;22.30;99.90
20376;DHT22;10347;51.828;6.466;2022-07-29T13:23:19;22.40;99.90
20376;DHT22;10347;51.828;6.466;2022-07-29T13:25:44;22.40;99.90
20376;DHT22;10347;51.828;6.466;2022-07-29T13:28:10;22.50;99.90
20376;DHT22;10347;51.828;6.466;2022-07-29T13:30:39;22.60;99.90
20376;DHT22;10347;51.828;6.466;2022-07-29T13:33:06;22.70;99.90
20376;DHT22;10347;51.828;6.466;2022-07-29T13:35:31;22.80;99.90
20376;DHT22;10347;51.828;6.466;2022-07-29T13:37:57;22.90;99.90
20376;DHT22;10347;51.828;6.466;2022-07-29T13:40:23;23.00;99.90
20376;DHT22;10347;51.828;6.466;2022-07-29T13:42:48;23.00;99.90
20376;DHT22;10347;51.828;6.466;2022-07-29T13:45:14;23.20;99.90
20376;DHT22;10347;51.828;6.466;2022-07-29T13:47:40;23.30;99.90
20376;DHT22;10347;51.828;6.466;2022-07-29T13:50:07;23.30;99.90
20376;DHT22;10347;51.828;6.466;2022-07-29T13:52:33;23.30;99.90
20376;DHT22;10347;51.828;6.466;2022-07-29T13:54:59;23.40;99.90
20376;DHT22;10347;51.828;6.466;2022-07-29T13:57:25;23.40;99.90
20376;DHT22;10347;51.828;6.466;2022-07-29T13:59:51;23.50;99.90
20376;DHT22;10347;51.828;6.466;2022-07-29T14:02:16;23.50;99.90
20376;DHT22;10347;51.828;6.466;2022-07-29T14:04:43;23.60;99.90
20376;DHT22;10347;51.828;6.466;2022-07-29T14:07:08;23.60;99.90
20376;DHT22;10347;51.828;6.466;2022-07-29T14:09:35;23.60;99.90
20376;DHT22;10347;51.828;6.466;2022-07-29T14:12:01;23.60;99.90
20376;DHT22;10347;51.828;6.466;2022-07-29T14:14:28;23.70;99.90
20376;DHT22;10347;51.828;6.466;2022-07-29T14:16:54;23.70;99.90
20376;DHT22;10347;51.828;6.466;2022-07-29T14:19:19;23.80;99.90
20376;DHT22;10347;51.828;6.466;2022-07-29T14:21:45;23.80;99.90
20376;DHT22;10347;51.828;6.466;2022-07-29T14:24:10;23.90;99.90
20376;DHT22;10347;51.828;6.466;2022-07-29T14:26:36;23.90;99.90
20376;DHT22;10347;51.828;6.466;2022-07-29T14:29:02;24.00;99.90
20376;DHT22;10347;51.828;6.466;2022-07-29T14:31:27;24.00;99.90
20376;DHT22;10347;51.828;6.466;2022-07-29T14:33:53;24.10;99.90
20376;DHT22;10347;51.828;6.466;2022-07-29T14:36:18;24.10;99.90
20376;DHT22;10347;51.828;6.466;2022-07-29T14:38:44;24.20;99.90
20376;DHT22;10347;51.828;6.466;2022-07-29T14:41:10;24.20;99.90
20376;DHT22;10347;51.828;6.466;2022-07-29T14:43:35;24.20;99.90
20376;DHT22;10347;51.828;6.466;2022-07-29T14:46:01;24.30;99.90
20376;DHT22;10347;51.828;6.466;2022-07-29T14:48:27;24.40;99.90
20376;DHT22;10347;51.828;6.466;2022-07-29T14:50:53;24.40;99.90
20376;DHT22;10347;51.828;6.466;2022-07-29T14:53:20;24.50;99.90
20376;DHT22;10347;51.828;6.466;2022-07-29T14:55:45;24.60;99.90
20376;DHT22;10347;51.828;6.466;2022-07-29T14:58:11;24.60;99.90
20376;DHT22;10347;51.828;6.466;2022-07-29T15:00:36;24.60;99.90
20376;DHT22;10347;51.828;6.466;2022-07-29T15:03:03;24.70;99.90
20376;DHT22;10347;51.828;6.466;2022-07-29T15:05:32;24.80;99.90
20376;DHT22;10347;51.828;6.466;2022-07-29T15:07:59;24.80;99.90
20376;DHT22;10347;51.828;6.466;2022-07-29T15:10:25;24.80;99.90
20376;DHT22;10347;51.828;6.466;2022-07-29T15:12:54;24.90;99.90
20376;DHT22;10347;51.828;6.466;2022-07-29T15:15:19;25.00;99.90
20376;DHT22;10347;51.828;6.466;2022-07-29T15:17:45;25.10;99.90
20376;DHT22;10347;51.828;6.466;2022-07-29T15:20:11;25.10;99.90
20376;DHT22;10347;51.828;6.466;2022-07-29T15:22:37;25.20;99.90
20376;DHT22;10347;51.828;6.466;2022-07-29T15:25:04;25.20;99.90
20376;DHT22;10347;51.828;6.466;2022-07-29T15:27:30;25.30;99.90
20376;DHT22;10347;51.828;6.466;2022-07-29T15:29:56;25.30;99.90
20376;DHT22;10347;51.828;6.466;2022-07-29T15:32:21;25.30;99.90
20376;DHT22;10347;51.828;6.466;2022-07-29T15:34:47;25.30;99.90
20376;DHT22;10347;51.828;6.466;2022-07-29T15:37:12;25.30;99.90
20376;DHT22;10347;51.828;6.466;2022-07-29T15:39:38;25.30;99.90
20376;DHT22;10347;51.828;6.466;2022-07-29T15:42:04;25.30;99.90
20376;DHT22;10347;51.828;6.466;2022-07-29T15:44:29;25.30;99.90
20376;DHT22;10347;51.828;6.466;2022-07-29T15:46:55;25.40;99.90
20376;DHT22;10347;51.828;6.466;2022-07-29T15:49:40;25.30;99.90
20376;DHT22;10347;51.828;6.466;2022-07-29T15:52:08;25.30;99.90
20376;DHT22;10347;51.828;6.466;2022-07-29T15:54:36;25.40;99.90
20376;DHT22;10347;51.828;6.466;2022-07-29T15:57:03;25.40;99.90
20376;DHT22;10347;51.828;6.466;2022-07-29T15:59:30;25.50;99.90
20376;DHT22;10347;51.828;6.466;2022-07-29T16:01:56;25.50;99.90
20376;DHT22;10347;51.828;6.466;2022-07-29T16:04:22;25.50;99.90
20376;DHT22;10347;51.828;6.466;2022-07-29T16:06:47;25.50;99.90
20376;DHT22;10347;51.828;6.466;2022-07-29T16:09:14;25.50;99.90
20376;DHT22;10347;51.828;6.466;2022-07-29T16:11:40;25.50;99.90
20376;DHT22;10347;51.828;6.466;2022-07-29T16:14:06;25.60;99.90
20376;DHT22;10347;51.828;6.466;2022-07-29T16:16:32;25.60;99.90
20376;DHT22;10347;51.828;6.466;2022-07-29T16:18:58;25.60;99.90
20376;DHT22;10347;51.828;6.466;2022-07-29T16:21:24;25.60;99.90